sensor_id;sensor_type;location;lat;lon;timestamp;temperature;humidity
76102;SHT30;64830;46.910;6.354;2023-02-12T00:02:24;0.50;69.34
76102;SHT30;64830;46.910;6.354;2023-02-12T00:04:49;0.50;69.28
76102;SHT30;64830;46.910;6.354;2023-02-12T00:07:15;0.47;68.95
76102;SHT30;64830;46.910;6.354;2023-02-12T00:09:40;0.50;68.60
76102;SHT30;64830;46.910;6.354;2023-02-12T00:12:06;0.50;68.56
76102;SHT30;64830;46.910;6.354;2023-02-12T00:14:31;0.50;68.24
76102;SHT30;64830;46.910;6.354;2023-02-12T00:16:57;0.50;67.47
76102;SHT30;64830;46.910;6.354;2023-02-12T00:19:22;0.50;67.50
76102;SHT30;64830;46.910;6.354;2023-02-12T00:21:48;0.52;67.33
76102;SHT30;64830;46.910;6.354;2023-02-12T00:24:14;0.50;66.70
76102;SHT30;64830;46.910;6.354;2023-02-12T00:26:39;0.49;67.04
76102;SHT30;64830;46.910;6.354;2023-02-12T00:29:04;0.50;67.15
76102;SHT30;64830;46.910;6.354;2023-02-12T00:31:30;0.50;67.18
76102;SHT30;64830;46.910;6.354;2023-02-12T00:33:57;0.50;67.44
76102;SHT30;64830;46.910;6.354;2023-02-12T00:36:25;0.47;68.16
76102;SHT30;64830;46.910;6.354;2023-02-12T00:38:52;0.46;67.89
76102;SHT30;64830;46.910;6.354;2023-02-12T00:41:18;0.46;67.93
76102;SHT30;64830;46.910;6.354;2023-02-12T00:43:43;0.47;67.99
76102;SHT30;64830;46.910;6.354;2023-02-12T00:46:09;0.47;67.91
76102;SHT30;64830;46.910;6.354;2023-02-12T00:48:36;0.45;67.56
76102;SHT30;64830;46.910;6.354;2023-02-12T00:51:02;0.39;67.02
76102;SHT30;64830;46.910;6.354;2023-02-12T00:53:28;0.32;67.01
76102;SHT30;64830;46.910;6.354;2023-02-12T00:55:53;0.26;67.08
76102;SHT30;64830;46.910;6.354;2023-02-12T00:58:19;0.26;66.79
76102;SHT30;64830;46.910;6.354;2023-02-12T01:00:44;0.28;66.97
76102;SHT30;64830;46.910;6.354;2023-02-12T01:03:10;0.28;67.36
76102;SHT30;64830;46.910;6.354;2023-02-12T01:05:35;0.29;66.89
76102;SHT30;64830;46.910;6.354;2023-02-12T01:08:01;0.30;66.69
76102;SHT30;64830;46.910;6.354;2023-02-12T01:10:27;0.35;66.52
76102;SHT30;64830;46.910;6.354;2023-02-12T01:12:52;0.36;66.22
76102;SHT30;64830;46.910;6.354;2023-02-12T01:15:18;0.40;66.34
76102;SHT30;64830;46.910;6.354;2023-02-12T01:17:44;0.45;66.63
76102;SHT30;64830;46.910;6.354;2023-02-12T01:20:15;0.46;66.47
76102;SHT30;64830;46.910;6.354;2023-02-12T01:22:44;0.49;66.67
76102;SHT30;64830;46.910;6.354;2023-02-12T01:25:10;0.47;66.43
76102;SHT30;64830;46.910;6.354;2023-02-12T01:27:36;0.49;66.00
76102;SHT30;64830;46.910;6.354;2023-02-12T01:30:04;0.49;66.23
76102;SHT30;64830;46.910;6.354;2023-02-12T01:32:30;0.50;66.49
76102;SHT30;64830;46.910;6.354;2023-02-12T01:34:55;0.47;66.72
76102;SHT30;64830;46.910;6.354;2023-02-12T01:37:20;0.45;66.58
76102;SHT30;64830;46.910;6.354;2023-02-12T01:39:46;0.43;66.24
76102;SHT30;64830;46.910;6.354;2023-02-12T01:42:13;0.40;65.61
76102;SHT30;64830;46.910;6.354;2023-02-12T01:44:44;0.43;66.00
76102;SHT30;64830;46.910;6.354;2023-02-12T01:47:16;0.43;67.28
76102;SHT30;64830;46.910;6.354;2023-02-12T01:49:44;0.42;67.46
76102;SHT30;64830;46.910;6.354;2023-02-12T01:52:17;0.39;67.26
76102;SHT30;64830;46.910;6.354;2023-02-12T01:54:49;0.42;66.19
76102;SHT30;64830;46.910;6.354;2023-02-12T01:57:17;0.42;66.14
76102;SHT30;64830;46.910;6.354;2023-02-12T01:59:44;0.45;65.83
76102;SHT30;64830;46.910;6.354;2023-02-12T02:02:12;0.47;66.55
76102;SHT30;64830;46.910;6.354;2023-02-12T02:04:51;0.53;66.06
76102;SHT30;64830;46.910;6.354;2023-02-12T02:07:18;0.53;65.33
76102;SHT30;64830;46.910;6.354;2023-02-12T02:09:43;0.57;65.36
76102;SHT30;64830;46.910;6.354;2023-02-12T02:12:09;0.58;64.56
76102;SHT30;64830;46.910;6.354;2023-02-12T02:14:56;0.64;64.73
76102;SHT30;64830;46.910;6.354;2023-02-12T02:17:42;0.66;64.82
76102;SHT30;64830;46.910;6.354;2023-02-12T02:32:05;0.71;64.17
76102;SHT30;64830;46.910;6.354;2023-02-12T02:34:34;0.74;65.32
76102;SHT30;64830;46.910;6.354;2023-02-12T02:40:00;0.68;64.68
76102;SHT30;64830;46.910;6.354;2023-02-12T02:42:38;0.67;64.44
76102;SHT30;64830;46.910;6.354;2023-02-12T02:45:15;0.67;64.99
76102;SHT30;64830;46.910;6.354;2023-02-12T02:47:45;0.66;64.50
76102;SHT30;64830;46.910;6.354;2023-02-12T02:50:16;0.67;64.35
76102;SHT30;64830;46.910;6.354;2023-02-12T02:52:46;0.66;65.32
76102;SHT30;64830;46.910;6.354;2023-02-12T02:55:16;0.64;65.16
76102;SHT30;64830;46.910;6.354;2023-02-12T03:02:44;0.57;65.63
76102;SHT30;64830;46.910;6.354;2023-02-12T03:05:34;0.54;65.08
76102;SHT30;64830;46.910;6.354;2023-02-12T03:08:12;0.53;64.18
76102;SHT30;64830;46.910;6.354;2023-02-12T03:10:42;0.49;64.00
76102;SHT30;64830;46.910;6.354;2023-02-12T03:13:18;0.47;63.52
76102;SHT30;64830;46.910;6.354;2023-02-12T03:15:49;0.42;64.16
76102;SHT30;64830;46.910;6.354;2023-02-12T03:18:22;0.40;64.58
76102;SHT30;64830;46.910;6.354;2023-02-12T03:20:59;0.39;64.56
76102;SHT30;64830;46.910;6.354;2023-02-12T03:23:32;0.39;65.35
76102;SHT30;64830;46.910;6.354;2023-02-12T03:26:11;0.35;65.61
76102;SHT30;64830;46.910;6.354;2023-02-12T03:28:38;0.32;65.60
76102;SHT30;64830;46.910;6.354;2023-02-12T03:31:33;0.25;65.93
76102;SHT30;64830;46.910;6.354;2023-02-12T03:34:23;0.18;66.13
76102;SHT30;64830;46.910;6.354;2023-02-12T03:37:11;0.09;66.70
76102;SHT30;64830;46.910;6.354;2023-02-12T03:39:54;0.04;66.68
76102;SHT30;64830;46.910;6.354;2023-02-12T03:42:29;-0.02;66.42
76102;SHT30;64830;46.910;6.354;2023-02-12T03:45:10;-0.06;66.36
76102;SHT30;64830;46.910;6.354;2023-02-12T03:47:42;-0.07;66.50
76102;SHT30;64830;46.910;6.354;2023-02-12T03:50:14;-0.12;66.59
76102;SHT30;64830;46.910;6.354;2023-02-12T03:52:42;-0.16;66.64
76102;SHT30;64830;46.910;6.354;2023-02-12T03:55:08;-0.20;66.63
76102;SHT30;64830;46.910;6.354;2023-02-12T03:57:44;-0.23;66.87
76102;SHT30;64830;46.910;6.354;2023-02-12T04:00:15;-0.23;66.93
76102;SHT30;64830;46.910;6.354;2023-02-12T04:02:42;-0.27;67.00
76102;SHT30;64830;46.910;6.354;2023-02-12T04:05:15;-0.32;67.27
76102;SHT30;64830;46.910;6.354;2023-02-12T04:07:41;-0.34;67.49
76102;SHT30;64830;46.910;6.354;2023-02-12T04:10:07;-0.40;68.07
76102;SHT30;64830;46.910;6.354;2023-02-12T04:12:39;-0.41;68.18
76102;SHT30;64830;46.910;6.354;2023-02-12T04:18:02;-0.45;67.59
76102;SHT30;64830;46.910;6.354;2023-02-12T04:21:05;-0.50;67.13
76102;SHT30;64830;46.910;6.354;2023-02-12T04:26:39;-0.64;68.26
76102;SHT30;64830;46.910;6.354;2023-02-12T04:32:32;-0.68;68.23
76102;SHT30;64830;46.910;6.354;2023-02-12T04:35:08;-0.71;68.84
76102;SHT30;64830;46.910;6.354;2023-02-12T04:37:48;-0.74;68.61
76102;SHT30;64830;46.910;6.354;2023-02-12T04:40:17;-0.79;68.34
76102;SHT30;64830;46.910;6.354;2023-02-12T04:42:45;-0.82;68.97
76102;SHT30;64830;46.910;6.354;2023-02-12T04:45:12;-0.82;69.01
76102;SHT30;64830;46.910;6.354;2023-02-12T04:47:38;-0.84;68.91
76102;SHT30;64830;46.910;6.354;2023-02-12T04:50:04;-0.84;68.77
76102;SHT30;64830;46.910;6.354;2023-02-12T04:52:29;-0.86;67.92
76102;SHT30;64830;46.910;6.354;2023-02-12T04:54:54;-0.85;67.02
76102;SHT30;64830;46.910;6.354;2023-02-12T04:57:20;-0.85;67.06
76102;SHT30;64830;46.910;6.354;2023-02-12T04:59:45;-0.81;67.32
76102;SHT30;64830;46.910;6.354;2023-02-12T05:02:10;-0.78;67.25
76102;SHT30;64830;46.910;6.354;2023-02-12T05:04:36;-0.72;67.77
76102;SHT30;64830;46.910;6.354;2023-02-12T05:07:01;-0.74;67.69
76102;SHT30;64830;46.910;6.354;2023-02-12T05:09:27;-0.74;67.48
76102;SHT30;64830;46.910;6.354;2023-02-12T05:11:52;-0.71;67.69
76102;SHT30;64830;46.910;6.354;2023-02-12T05:14:17;-0.68;67.76
76102;SHT30;64830;46.910;6.354;2023-02-12T05:16:43;-0.65;68.08
76102;SHT30;64830;46.910;6.354;2023-02-12T05:19:08;-0.62;67.83
76102;SHT30;64830;46.910;6.354;2023-02-12T05:21:35;-0.60;68.20
76102;SHT30;64830;46.910;6.354;2023-02-12T05:24:01;-0.60;67.88
76102;SHT30;64830;46.910;6.354;2023-02-12T05:26:27;-0.60;67.49
76102;SHT30;64830;46.910;6.354;2023-02-12T05:28:53;-0.60;67.57
76102;SHT30;64830;46.910;6.354;2023-02-12T05:31:19;-0.60;67.51
76102;SHT30;64830;46.910;6.354;2023-02-12T05:33:45;-0.60;67.13
76102;SHT30;64830;46.910;6.354;2023-02-12T05:36:14;-0.56;67.51
76102;SHT30;64830;46.910;6.354;2023-02-12T05:38:40;-0.51;67.02
76102;SHT30;64830;46.910;6.354;2023-02-12T05:41:08;-0.49;66.75
76102;SHT30;64830;46.910;6.354;2023-02-12T05:43:34;-0.41;66.78
76102;SHT30;64830;46.910;6.354;2023-02-12T05:46:00;-0.40;66.66
76102;SHT30;64830;46.910;6.354;2023-02-12T05:48:27;-0.37;66.88
76102;SHT30;64830;46.910;6.354;2023-02-12T05:50:53;-0.36;67.05
76102;SHT30;64830;46.910;6.354;2023-02-12T05:53:18;-0.33;66.84
76102;SHT30;64830;46.910;6.354;2023-02-12T05:55:44;-0.33;67.26
76102;SHT30;64830;46.910;6.354;2023-02-12T05:58:10;-0.33;66.88
76102;SHT30;64830;46.910;6.354;2023-02-12T06:00:35;-0.37;66.93
76102;SHT30;64830;46.910;6.354;2023-02-12T06:03:01;-0.41;66.95
76102;SHT30;64830;46.910;6.354;2023-02-12T06:05:26;-0.47;67.03
76102;SHT30;64830;46.910;6.354;2023-02-12T06:07:51;-0.51;66.86
76102;SHT30;64830;46.910;6.354;2023-02-12T06:10:17;-0.61;66.88
76102;SHT30;64830;46.910;6.354;2023-02-12T06:12:42;-0.68;67.27
76102;SHT30;64830;46.910;6.354;2023-02-12T06:15:08;-0.77;67.69
76102;SHT30;64830;46.910;6.354;2023-02-12T06:17:33;-0.82;68.08
76102;SHT30;64830;46.910;6.354;2023-02-12T06:19:59;-0.89;67.94
76102;SHT30;64830;46.910;6.354;2023-02-12T06:22:26;-0.95;68.09
76102;SHT30;64830;46.910;6.354;2023-02-12T06:24:52;-0.99;68.15
76102;SHT30;64830;46.910;6.354;2023-02-12T06:27:17;-1.05;68.29
76102;SHT30;64830;46.910;6.354;2023-02-12T06:29:42;-1.07;68.40
76102;SHT30;64830;46.910;6.354;2023-02-12T06:32:08;-1.10;68.48
76102;SHT30;64830;46.910;6.354;2023-02-12T06:34:33;-1.13;68.61
76102;SHT30;64830;46.910;6.354;2023-02-12T06:36:59;-1.17;68.92
76102;SHT30;64830;46.910;6.354;2023-02-12T06:39:24;-1.24;69.02
76102;SHT30;64830;46.910;6.354;2023-02-12T06:41:50;-1.26;68.81
76102;SHT30;64830;46.910;6.354;2023-02-12T06:44:15;-1.27;69.07
76102;SHT30;64830;46.910;6.354;2023-02-12T06:46:41;-1.31;69.00
76102;SHT30;64830;46.910;6.354;2023-02-12T06:49:06;-1.34;69.24
76102;SHT30;64830;46.910;6.354;2023-02-12T06:51:32;-1.39;69.28
76102;SHT30;64830;46.910;6.354;2023-02-12T06:53:58;-1.40;69.15
76102;SHT30;64830;46.910;6.354;2023-02-12T06:56:24;-1.41;69.40
76102;SHT30;64830;46.910;6.354;2023-02-12T06:58:55;-1.44;69.71
76102;SHT30;64830;46.910;6.354;2023-02-12T07:01:24;-1.48;69.45
76102;SHT30;64830;46.910;6.354;2023-02-12T07:04:00;-1.50;69.48
76102;SHT30;64830;46.910;6.354;2023-02-12T07:06:30;-1.48;69.61
76102;SHT30;64830;46.910;6.354;2023-02-12T07:08:56;-1.50;69.66
76102;SHT30;64830;46.910;6.354;2023-02-12T07:11:27;-1.50;70.05
76102;SHT30;64830;46.910;6.354;2023-02-12T07:13:52;-1.52;70.09
76102;SHT30;64830;46.910;6.354;2023-02-12T07:16:18;-1.57;69.81
76102;SHT30;64830;46.910;6.354;2023-02-12T07:18:44;-1.54;69.78
76102;SHT30;64830;46.910;6.354;2023-02-12T07:21:11;-1.54;70.04
76102;SHT30;64830;46.910;6.354;2023-02-12T07:23:38;-1.58;70.25
76102;SHT30;64830;46.910;6.354;2023-02-12T07:26:12;-1.59;70.25
76102;SHT30;64830;46.910;6.354;2023-02-12T07:28:38;-1.57;70.03
76102;SHT30;64830;46.910;6.354;2023-02-12T07:31:30;-1.54;70.09
76102;SHT30;64830;46.910;6.354;2023-02-12T07:33:57;-1.54;70.57
76102;SHT30;64830;46.910;6.354;2023-02-12T07:36:24;-1.54;70.65
76102;SHT30;64830;46.910;6.354;2023-02-12T07:38:50;-1.51;70.53
76102;SHT30;64830;46.910;6.354;2023-02-12T07:41:25;-1.39;70.56
76102;SHT30;64830;46.910;6.354;2023-02-12T07:43:55;-1.29;70.05
76102;SHT30;64830;46.910;6.354;2023-02-12T07:46:24;-1.13;70.11
76102;SHT30;64830;46.910;6.354;2023-02-12T07:48:54;-1.05;69.82
76102;SHT30;64830;46.910;6.354;2023-02-12T07:51:20;-0.96;69.76
76102;SHT30;64830;46.910;6.354;2023-02-12T07:53:47;-0.89;69.88
76102;SHT30;64830;46.910;6.354;2023-02-12T07:56:23;-0.81;69.72
76102;SHT30;64830;46.910;6.354;2023-02-12T07:58:51;-0.71;69.61
76102;SHT30;64830;46.910;6.354;2023-02-12T08:01:24;-0.64;69.42
76102;SHT30;64830;46.910;6.354;2023-02-12T08:03:57;-0.54;69.31
76102;SHT30;64830;46.910;6.354;2023-02-12T08:06:25;-0.50;68.72
76102;SHT30;64830;46.910;6.354;2023-02-12T08:08:52;-0.41;68.87
76102;SHT30;64830;46.910;6.354;2023-02-12T08:11:19;-0.32;68.64
76102;SHT30;64830;46.910;6.354;2023-02-12T08:13:44;-0.27;68.46
76102;SHT30;64830;46.910;6.354;2023-02-12T08:16:13;-0.24;68.60
76102;SHT30;64830;46.910;6.354;2023-02-12T08:18:38;-0.20;68.35
76102;SHT30;64830;46.910;6.354;2023-02-12T08:21:06;-0.15;68.56
76102;SHT30;64830;46.910;6.354;2023-02-12T08:23:33;-0.10;68.82
76102;SHT30;64830;46.910;6.354;2023-02-12T08:28:33;0.05;69.01
76102;SHT30;64830;46.910;6.354;2023-02-12T08:31:02;0.23;68.69
76102;SHT30;64830;46.910;6.354;2023-02-12T08:33:28;0.40;68.54
76102;SHT30;64830;46.910;6.354;2023-02-12T08:36:09;0.57;68.23
76102;SHT30;64830;46.910;6.354;2023-02-12T08:38:35;0.73;68.34
76102;SHT30;64830;46.910;6.354;2023-02-12T08:41:03;0.92;67.99
76102;SHT30;64830;46.910;6.354;2023-02-12T08:43:29;1.11;67.83
76102;SHT30;64830;46.910;6.354;2023-02-12T08:45:54;1.28;67.25
76102;SHT30;64830;46.910;6.354;2023-02-12T08:48:25;1.40;67.14
76102;SHT30;64830;46.910;6.354;2023-02-12T08:50:50;1.56;66.53
76102;SHT30;64830;46.910;6.354;2023-02-12T08:53:15;1.63;66.37
76102;SHT30;64830;46.910;6.354;2023-02-12T08:55:47;1.71;66.02
76102;SHT30;64830;46.910;6.354;2023-02-12T08:58:12;1.84;65.78
76102;SHT30;64830;46.910;6.354;2023-02-12T09:00:38;1.95;65.71
76102;SHT30;64830;46.910;6.354;2023-02-12T09:03:03;2.02;65.19
76102;SHT30;64830;46.910;6.354;2023-02-12T09:05:29;2.15;65.40
76102;SHT30;64830;46.910;6.354;2023-02-12T09:07:54;2.29;65.66
76102;SHT30;64830;46.910;6.354;2023-02-12T09:10:20;2.47;65.46
76102;SHT30;64830;46.910;6.354;2023-02-12T09:12:45;2.66;65.62
76102;SHT30;64830;46.910;6.354;2023-02-12T09:15:11;2.82;64.84
76102;SHT30;64830;46.910;6.354;2023-02-12T09:17:36;2.99;64.94
76102;SHT30;64830;46.910;6.354;2023-02-12T09:20:01;3.16;63.94
76102;SHT30;64830;46.910;6.354;2023-02-12T09:22:27;3.38;64.54
76102;SHT30;64830;46.910;6.354;2023-02-12T09:24:52;3.54;63.52
76102;SHT30;64830;46.910;6.354;2023-02-12T09:27:18;3.68;63.16
76102;SHT30;64830;46.910;6.354;2023-02-12T09:29:43;3.86;62.50
76102;SHT30;64830;46.910;6.354;2023-02-12T09:32:08;4.00;62.16
76102;SHT30;64830;46.910;6.354;2023-02-12T09:34:35;4.14;62.51
76102;SHT30;64830;46.910;6.354;2023-02-12T09:37:00;4.30;61.69
76102;SHT30;64830;46.910;6.354;2023-02-12T09:39:26;4.44;60.65
76102;SHT30;64830;46.910;6.354;2023-02-12T09:47:29;4.85;59.32
76102;SHT30;64830;46.910;6.354;2023-02-12T09:52:48;5.15;58.81
76102;SHT30;64830;46.910;6.354;2023-02-12T09:55:14;5.27;57.78
76102;SHT30;64830;46.910;6.354;2023-02-12T09:57:40;5.43;58.56
76102;SHT30;64830;46.910;6.354;2023-02-12T10:00:15;5.62;57.02
76102;SHT30;64830;46.910;6.354;2023-02-12T10:02:42;5.76;56.19
76102;SHT30;64830;46.910;6.354;2023-02-12T10:05:16;5.92;55.06
76102;SHT30;64830;46.910;6.354;2023-02-12T10:13:04;6.23;54.66
76102;SHT30;64830;46.910;6.354;2023-02-12T10:15:52;6.38;54.38
76102;SHT30;64830;46.910;6.354;2023-02-12T10:21:08;6.72;54.51
76102;SHT30;64830;46.910;6.354;2023-02-12T10:23:59;6.86;53.83
76102;SHT30;64830;46.910;6.354;2023-02-12T10:26:30;7.03;52.88
76102;SHT30;64830;46.910;6.354;2023-02-12T10:29:10;7.11;52.74
76102;SHT30;64830;46.910;6.354;2023-02-12T10:31:40;7.21;51.59
76102;SHT30;64830;46.910;6.354;2023-02-12T10:34:24;7.35;52.31
76102;SHT30;64830;46.910;6.354;2023-02-12T10:36:54;7.49;52.32
76102;SHT30;64830;46.910;6.354;2023-02-12T10:39:25;7.59;54.12
76102;SHT30;64830;46.910;6.354;2023-02-12T10:42:00;7.77;54.47
76102;SHT30;64830;46.910;6.354;2023-02-12T10:44:27;7.97;52.71
76102;SHT30;64830;46.910;6.354;2023-02-12T10:46:52;8.11;52.31
76102;SHT30;64830;46.910;6.354;2023-02-12T10:49:18;8.27;51.88
76102;SHT30;64830;46.910;6.354;2023-02-12T10:57:13;8.66;51.22
76102;SHT30;64830;46.910;6.354;2023-02-12T10:59:41;8.80;51.68
76102;SHT30;64830;46.910;6.354;2023-02-12T11:02:32;8.93;51.32
76102;SHT30;64830;46.910;6.354;2023-02-12T11:04:59;9.05;51.12
76102;SHT30;64830;46.910;6.354;2023-02-12T11:07:48;9.17;50.91
76102;SHT30;64830;46.910;6.354;2023-02-12T11:10:31;9.28;51.29
76102;SHT30;64830;46.910;6.354;2023-02-12T11:13:00;9.40;50.46
76102;SHT30;64830;46.910;6.354;2023-02-12T11:15:34;9.52;49.56
76102;SHT30;64830;46.910;6.354;2023-02-12T11:18:03;9.60;49.27
76102;SHT30;64830;46.910;6.354;2023-02-12T11:20:49;9.70;50.61
76102;SHT30;64830;46.910;6.354;2023-02-12T11:23:30;9.80;49.41
76102;SHT30;64830;46.910;6.354;2023-02-12T11:26:20;9.89;49.08
76102;SHT30;64830;46.910;6.354;2023-02-12T11:29:02;10.00;50.36
76102;SHT30;64830;46.910;6.354;2023-02-12T11:31:30;10.07;50.09
76102;SHT30;64830;46.910;6.354;2023-02-12T11:34:14;10.19;49.74
76102;SHT30;64830;46.910;6.354;2023-02-12T11:36:46;10.28;50.34
76102;SHT30;64830;46.910;6.354;2023-02-12T11:39:22;10.42;49.46
76102;SHT30;64830;46.910;6.354;2023-02-12T11:42:04;10.49;49.12
76102;SHT30;64830;46.910;6.354;2023-02-12T11:44:39;10.60;46.80
76102;SHT30;64830;46.910;6.354;2023-02-12T11:47:09;10.66;48.48
76102;SHT30;64830;46.910;6.354;2023-02-12T11:49:48;10.74;45.39
76102;SHT30;64830;46.910;6.354;2023-02-12T11:52:20;10.77;47.78
76102;SHT30;64830;46.910;6.354;2023-02-12T11:54:48;10.87;46.15
76102;SHT30;64830;46.910;6.354;2023-02-12T12:02:44;11.12;43.11
76102;SHT30;64830;46.910;6.354;2023-02-12T12:05:15;11.15;46.18
76102;SHT30;64830;46.910;6.354;2023-02-12T12:07:48;11.22;45.50
76102;SHT30;64830;46.910;6.354;2023-02-12T12:11:01;11.32;46.32
76102;SHT30;64830;46.910;6.354;2023-02-12T12:13:13;11.39;45.40
76102;SHT30;64830;46.910;6.354;2023-02-12T12:15:44;11.42;46.29
76102;SHT30;64830;46.910;6.354;2023-02-12T12:24:16;11.58;45.67
76102;SHT30;64830;46.910;6.354;2023-02-12T12:26:49;11.61;45.26
76102;SHT30;64830;46.910;6.354;2023-02-12T12:29:41;11.66;44.96
76102;SHT30;64830;46.910;6.354;2023-02-12T12:32:14;11.73;44.01
76102;SHT30;64830;46.910;6.354;2023-02-12T12:34:40;11.77;44.12
76102;SHT30;64830;46.910;6.354;2023-02-12T12:43:08;11.93;43.32
76102;SHT30;64830;46.910;6.354;2023-02-12T12:54:36;12.00;43.23
76102;SHT30;64830;46.910;6.354;2023-02-12T12:57:07;12.00;42.97
76102;SHT30;64830;46.910;6.354;2023-02-12T13:02:26;11.98;43.17
76102;SHT30;64830;46.910;6.354;2023-02-12T13:10:27;11.97;43.50
76102;SHT30;64830;46.910;6.354;2023-02-12T13:15:49;11.86;43.23
76102;SHT30;64830;46.910;6.354;2023-02-12T13:26:09;11.81;43.22
76102;SHT30;64830;46.910;6.354;2023-02-12T13:28:39;11.79;44.03
76102;SHT30;64830;46.910;6.354;2023-02-12T13:31:08;11.74;44.58
76102;SHT30;64830;46.910;6.354;2023-02-12T13:33:41;11.67;44.91
76102;SHT30;64830;46.910;6.354;2023-02-12T13:36:12;11.63;45.26
76102;SHT30;64830;46.910;6.354;2023-02-12T13:41:15;11.58;45.61
76102;SHT30;64830;46.910;6.354;2023-02-12T13:56:30;11.32;45.74
76102;SHT30;64830;46.910;6.354;2023-02-12T13:58:57;11.27;46.49
76102;SHT30;64830;46.910;6.354;2023-02-12T14:01:35;11.25;46.30
76102;SHT30;64830;46.910;6.354;2023-02-12T14:07:15;11.15;46.81
76102;SHT30;64830;46.910;6.354;2023-02-12T14:14:41;11.10;47.36
76102;SHT30;64830;46.910;6.354;2023-02-12T14:20:23;10.97;47.69
76102;SHT30;64830;46.910;6.354;2023-02-12T14:27:52;10.89;48.45
76102;SHT30;64830;46.910;6.354;2023-02-12T14:30:31;10.89;48.99
76102;SHT30;64830;46.910;6.354;2023-02-12T14:33:24;10.85;48.72
76102;SHT30;64830;46.910;6.354;2023-02-12T14:39:01;10.83;49.74
76102;SHT30;64830;46.910;6.354;2023-02-12T14:41:30;10.85;50.03
76102;SHT30;64830;46.910;6.354;2023-02-12T14:46:58;10.87;49.86
76102;SHT30;64830;46.910;6.354;2023-02-12T14:54:57;10.81;50.17
76102;SHT30;64830;46.910;6.354;2023-02-12T14:57:27;10.79;49.95
76102;SHT30;64830;46.910;6.354;2023-02-12T15:00:00;10.77;49.98
76102;SHT30;64830;46.910;6.354;2023-02-12T15:02:33;10.76;50.16
76102;SHT30;64830;46.910;6.354;2023-02-12T15:05:05;10.73;50.57
76102;SHT30;64830;46.910;6.354;2023-02-12T15:07:42;10.73;50.59
76102;SHT30;64830;46.910;6.354;2023-02-12T15:10:21;10.69;50.63
76102;SHT30;64830;46.910;6.354;2023-02-12T15:15:46;10.66;50.86
76102;SHT30;64830;46.910;6.354;2023-02-12T15:18:29;10.66;51.45
76102;SHT30;64830;46.910;6.354;2023-02-12T15:21:12;10.63;51.40
76102;SHT30;64830;46.910;6.354;2023-02-12T15:23:43;10.63;51.87
76102;SHT30;64830;46.910;6.354;2023-02-12T15:26:21;10.63;51.88
76102;SHT30;64830;46.910;6.354;2023-02-12T15:28:50;10.60;52.10
76102;SHT30;64830;46.910;6.354;2023-02-12T15:31:24;10.57;52.16
76102;SHT30;64830;46.910;6.354;2023-02-12T15:33:51;10.55;52.55
76102;SHT30;64830;46.910;6.354;2023-02-12T15:36:22;10.50;52.53
76102;SHT30;64830;46.910;6.354;2023-02-12T15:38:58;10.44;52.96
76102;SHT30;64830;46.910;6.354;2023-02-12T15:44:03;10.24;53.59
76102;SHT30;64830;46.910;6.354;2023-02-12T15:47:01;10.15;54.10
76102;SHT30;64830;46.910;6.354;2023-02-12T15:49:32;10.04;54.17
76102;SHT30;64830;46.910;6.354;2023-02-12T15:52:00;9.94;54.58
76102;SHT30;64830;46.910;6.354;2023-02-12T15:54:27;9.93;54.76
76102;SHT30;64830;46.910;6.354;2023-02-12T15:56:53;9.87;54.74
76102;SHT30;64830;46.910;6.354;2023-02-12T15:59:22;10.60;54.51
76102;SHT30;64830;46.910;6.354;2023-02-12T16:01:59;13.28;50.47
76102;SHT30;64830;46.910;6.354;2023-02-12T16:04:29;15.28;48.67
76102;SHT30;64830;46.910;6.354;2023-02-12T16:06:55;15.25;45.38
76102;SHT30;64830;46.910;6.354;2023-02-12T16:09:29;13.93;46.35
76102;SHT30;64830;46.910;6.354;2023-02-12T16:11:59;13.14;48.00
76102;SHT30;64830;46.910;6.354;2023-02-12T16:14:33;13.18;48.36
76102;SHT30;64830;46.910;6.354;2023-02-12T16:17:00;13.12;48.62
76102;SHT30;64830;46.910;6.354;2023-02-12T16:19:32;13.07;48.78
76102;SHT30;64830;46.910;6.354;2023-02-12T16:22:15;12.52;49.09
76102;SHT30;64830;46.910;6.354;2023-02-12T16:24:49;11.67;50.60
76102;SHT30;64830;46.910;6.354;2023-02-12T16:27:27;10.99;51.77
76102;SHT30;64830;46.910;6.354;2023-02-12T16:29:56;10.52;52.23
76102;SHT30;64830;46.910;6.354;2023-02-12T16:32:40;10.18;53.42
76102;SHT30;64830;46.910;6.354;2023-02-12T16:42:58;9.21;54.88
76102;SHT30;64830;46.910;6.354;2023-02-12T16:47:58;8.88;55.88
76102;SHT30;64830;46.910;6.354;2023-02-12T16:50:26;8.75;55.99
76102;SHT30;64830;46.910;6.354;2023-02-12T16:53:23;8.55;57.53
76102;SHT30;64830;46.910;6.354;2023-02-12T16:55:48;8.35;57.02
76102;SHT30;64830;46.910;6.354;2023-02-12T16:58:14;8.20;57.18
76102;SHT30;64830;46.910;6.354;2023-02-12T17:00:39;8.07;57.05
76102;SHT30;64830;46.910;6.354;2023-02-12T17:03:05;7.94;57.24
76102;SHT30;64830;46.910;6.354;2023-02-12T17:05:30;7.82;58.30
76102;SHT30;64830;46.910;6.354;2023-02-12T17:07:56;7.68;57.86
76102;SHT30;64830;46.910;6.354;2023-02-12T17:10:21;7.55;58.86
76102;SHT30;64830;46.910;6.354;2023-02-12T17:12:48;7.40;59.07
76102;SHT30;64830;46.910;6.354;2023-02-12T17:15:36;7.24;59.20
76102;SHT30;64830;46.910;6.354;2023-02-12T17:18:05;7.11;60.22
76102;SHT30;64830;46.910;6.354;2023-02-12T17:20:31;6.93;59.60
76102;SHT30;64830;46.910;6.354;2023-02-12T17:22:57;6.83;59.60
76102;SHT30;64830;46.910;6.354;2023-02-12T17:25:24;6.68;60.09
76102;SHT30;64830;46.910;6.354;2023-02-12T17:27:49;6.56;60.92
76102;SHT30;64830;46.910;6.354;2023-02-12T17:30:17;6.40;60.88
76102;SHT30;64830;46.910;6.354;2023-02-12T17:32:43;6.33;60.74
76102;SHT30;64830;46.910;6.354;2023-02-12T17:35:09;6.23;61.32
76102;SHT30;64830;46.910;6.354;2023-02-12T17:37:34;6.17;61.61
76102;SHT30;64830;46.910;6.354;2023-02-12T17:40:00;6.09;62.02
76102;SHT30;64830;46.910;6.354;2023-02-12T17:42:26;6.02;61.86
76102;SHT30;64830;46.910;6.354;2023-02-12T17:44:51;5.92;62.33
76102;SHT30;64830;46.910;6.354;2023-02-12T17:47:17;5.83;61.91
76102;SHT30;64830;46.910;6.354;2023-02-12T17:49:42;5.76;62.23
76102;SHT30;64830;46.910;6.354;2023-02-12T17:52:08;5.69;61.90
76102;SHT30;64830;46.910;6.354;2023-02-12T17:54:35;5.66;61.92
76102;SHT30;64830;46.910;6.354;2023-02-12T17:57:00;5.58;61.97
76102;SHT30;64830;46.910;6.354;2023-02-12T17:59:26;5.55;61.86
76102;SHT30;64830;46.910;6.354;2023-02-12T18:01:51;5.55;61.75
76102;SHT30;64830;46.910;6.354;2023-02-12T18:04:17;5.50;61.76
76102;SHT30;64830;46.910;6.354;2023-02-12T18:06:42;5.45;61.48
76102;SHT30;64830;46.910;6.354;2023-02-12T18:09:08;5.44;61.49
76102;SHT30;64830;46.910;6.354;2023-02-12T18:11:33;5.40;61.57
76102;SHT30;64830;46.910;6.354;2023-02-12T18:13:59;5.40;61.45
76102;SHT30;64830;46.910;6.354;2023-02-12T18:16:27;5.37;61.48
76102;SHT30;64830;46.910;6.354;2023-02-12T18:18:53;5.30;62.61
76102;SHT30;64830;46.910;6.354;2023-02-12T18:21:19;5.28;62.37
76102;SHT30;64830;46.910;6.354;2023-02-12T18:23:45;5.27;62.38
76102;SHT30;64830;46.910;6.354;2023-02-12T18:26:14;5.23;62.53
76102;SHT30;64830;46.910;6.354;2023-02-12T18:28:40;5.17;62.44
76102;SHT30;64830;46.910;6.354;2023-02-12T18:31:07;5.16;61.87
76102;SHT30;64830;46.910;6.354;2023-02-12T18:33:33;5.13;61.85